Time;durP1;ratioP1;P1;durP2;ratioP2;P2;SDS_P1;SDS_P2;PMS_P1;PMS_P2;Temp;Humidity;BMP_temperature;BMP_pressure;BME280_temperature;BME280_humidity;BME280_pressure;Samples;Min_cycle;Max_cycle;Signal;HPM_P1;HPM_P2
2022/04/21 00:01:22;;;;;;;23.32;14.87;;;;;;;7.45;100.00;100677.29;1726154;82;21032;-59
2022/04/21 00:03:51;;;;;;;19.80;14.23;;;;;;;7.44;100.00;100671.34;1726132;83;21052;-59
2022/04/21 00:06:20;;;;;;;19.07;14.15;;;;;;;7.42;100.00;100674.35;1725843;83;21083;-61
2022/04/21 00:08:48;;;;;;;18.98;13.58;;;;;;;7.38;100.00;100678.75;1721293;83;21107;-60
2022/04/21 00:11:17;;;;;;;20.52;14.98;;;;;;;7.37;100.00;100681.34;1720477;83;21076;-61
2022/04/21 00:13:46;;;;;;;21.75;13.75;;;;;;;7.43;100.00;100687.13;1714174;83;21533;-60
2022/04/21 00:16:13;;;;;;;22.73;14.98;;;;;;;7.47;100.00;100687.88;1714197;84;21041;-61
2022/04/21 00:18:42;;;;;;;20.35;14.30;;;;;;;7.45;100.00;100690.09;1714172;83;21522;-60
2022/04/21 00:21:10;;;;;;;20.50;14.73;;;;;;;7.46;100.00;100685.36;1714463;83;21042;-61
2022/04/21 00:23:38;;;;;;;21.87;14.43;;;;;;;7.44;100.00;100686.70;1714225;83;21018;-60
2022/04/21 00:26:05;;;;;;;20.90;14.25;;;;;;;7.41;100.00;100689.34;1714482;83;21096;-60
2022/04/21 00:28:33;;;;;;;19.45;13.88;;;;;;;7.33;100.00;100692.55;1714064;83;21076;-61
2022/04/21 00:31:03;;;;;;;21.65;14.43;;;;;;;7.31;100.00;100694.32;1714218;84;21076;-60
2022/04/21 00:33:31;;;;;;;18.02;13.43;;;;;;;7.30;100.00;100695.19;1714387;84;21049;-60
2022/04/21 00:35:58;;;;;;;20.45;13.80;;;;;;;7.33;100.00;100689.99;1714235;83;21056;-60
2022/04/21 00:38:27;;;;;;;22.17;14.47;;;;;;;7.47;100.00;100698.58;1714318;83;21561;-60
2022/04/21 00:40:55;;;;;;;24.40;14.50;;;;;;;7.57;100.00;100700.00;1714206;84;21080;-59
2022/04/21 00:43:24;;;;;;;23.05;14.90;;;;;;;7.67;100.00;100701.41;1714179;83;21036;-60
2022/04/21 00:45:56;;;;;;;23.40;16.32;;;;;;;7.58;100.00;100699.09;1714366;83;21502;-59
2022/04/21 00:48:24;;;;;;;24.75;17.20;;;;;;;7.50;100.00;100693.35;1714182;84;21049;-59
2022/04/21 00:50:52;;;;;;;29.00;17.73;;;;;;;7.57;100.00;100699.55;1714483;83;21096;-59
2022/04/21 00:53:19;;;;;;;31.45;19.23;;;;;;;7.90;100.00;100691.75;1714403;84;21782;-59
2022/04/21 00:55:47;;;;;;;31.73;18.57;;;;;;;7.98;100.00;100694.09;1714347;83;21048;-59
2022/04/21 00:58:15;;;;;;;34.38;20.65;;;;;;;8.02;100.00;100679.84;1714522;83;21037;-60
2022/04/21 01:00:45;;;;;;;31.30;18.75;;;;;;;8.16;100.00;100685.83;1714134;82;21081;-59
2022/04/21 01:03:14;;;;;;;31.55;18.20;;;;;;;8.18;100.00;100676.81;1714646;84;21021;-60
2022/04/21 01:05:42;;;;;;;29.70;18.45;;;;;;;8.19;100.00;100678.47;1714268;84;21052;-60
2022/04/21 01:08:10;;;;;;;26.52;16.60;;;;;;;8.09;100.00;100675.38;1716215;83;21584;-59
2022/04/21 01:10:42;;;;;;;25.70;16.93;;;;;;;8.20;100.00;100673.30;1717038;83;21037;-59
2022/04/21 01:13:11;;;;;;;26.90;16.42;;;;;;;8.19;100.00;100675.48;1716737;83;21107;-60
2022/04/21 01:15:41;;;;;;;29.18;17.20;;;;;;;8.23;100.00;100678.35;1716922;83;21036;-60
2022/04/21 01:18:09;;;;;;;26.80;16.80;;;;;;;8.18;100.00;100674.25;1716700;83;21056;-59
2022/04/21 01:20:38;;;;;;;30.12;17.37;;;;;;;8.16;100.00;100674.28;1716632;83;21053;-59
2022/04/21 01:23:06;;;;;;;29.42;17.23;;;;;;;8.17;100.00;100671.27;1716883;83;21044;-60
2022/04/21 01:25:39;;;;;;;31.07;18.77;;;;;;;8.31;100.00;100674.69;1716659;83;21053;-59
2022/04/21 01:28:10;;;;;;;30.12;17.20;;;;;;;8.38;100.00;100669.77;1671290;85;21737;-59
2022/04/21 01:30:39;;;;;;;24.32;15.90;;;;;;;8.40;100.00;100665.42;1667381;86;21699;-59
2022/04/21 01:33:08;;;;;;;28.15;17.48;;;;;;;8.39;100.00;100663.31;1665841;86;21167;-60
2022/04/21 01:35:38;;;;;;;25.55;17.57;;;;;;;8.35;100.00;100660.87;1665815;86;21096;-60
2022/04/21 01:41:12;;;;;;;25.52;16.70;;;;;;;8.40;100.00;100671.39;1665991;86;21143;-60
2022/04/21 01:43:43;;;;;;;22.25;15.58;;;;;;;8.57;100.00;100671.31;1665287;86;21081;-61
2022/04/21 01:46:13;;;;;;;21.50;15.18;;;;;;;8.36;100.00;100683.92;1665334;86;21111;-61
2022/04/21 01:48:41;;;;;;;22.42;15.72;;;;;;;8.34;100.00;100685.70;1665604;86;21096;-62
2022/04/21 01:51:09;;;;;;;21.60;13.95;;;;;;;8.52;100.00;100688.15;1665555;86;21073;-61
2022/04/21 01:53:37;;;;;;;20.10;14.13;;;;;;;8.56;100.00;100680.74;1665724;86;21084;-61
2022/04/21 01:56:06;;;;;;;21.62;14.68;;;;;;;8.66;100.00;100682.98;1666069;86;21072;-60
2022/04/21 01:58:35;;;;;;;19.25;13.83;;;;;;;8.63;100.00;100691.63;1665608;86;21092;-60
2022/04/21 02:01:02;;;;;;;16.70;11.97;;;;;;;8.80;100.00;100694.94;1665793;85;21084;-60
2022/04/21 02:03:32;;;;;;;19.98;14.13;;;;;;;8.68;100.00;100692.75;1665906;86;21087;-60
2022/04/21 02:06:01;;;;;;;19.17;13.83;;;;;;;8.70;100.00;100702.11;1665750;86;21096;-60
2022/04/21 02:08:29;;;;;;;19.42;13.65;;;;;;;8.80;100.00;100694.48;1658813;86;21056;-61
2022/04/21 02:10:58;;;;;;;17.87;13.28;;;;;;;8.99;100.00;100697.25;1658222;86;21623;-61
2022/04/21 02:13:25;;;;;;;19.98;13.22;;;;;;;8.98;100.00;100703.30;1648986;86;21089;-60
2022/04/21 02:15:54;;;;;;;18.23;13.10;;;;;;;9.05;100.00;100694.93;1644526;87;21038;-61
2022/04/21 02:18:21;;;;;;;18.00;12.90;;;;;;;9.07;100.00;100691.86;1644413;87;21081;-61
2022/04/21 02:20:49;;;;;;;18.07;11.85;;;;;;;9.20;100.00;100694.83;1644503;87;21104;-60
2022/04/21 02:23:16;;;;;;;15.88;10.80;;;;;;;9.28;100.00;100691.99;1644556;87;21082;-60
2022/04/21 02:25:43;;;;;;;17.20;12.35;;;;;;;9.34;100.00;100697.73;1644563;87;21074;-60
2022/04/21 02:28:10;;;;;;;15.88;11.88;;;;;;;9.29;100.00;100694.97;1644591;87;21096;-60
2022/04/21 02:30:38;;;;;;;18.05;12.03;;;;;;;9.22;100.00;100702.89;1644411;87;21156;-60
2022/04/21 02:33:06;;;;;;;19.73;12.58;;;;;;;9.02;100.00;100707.86;1644499;87;21122;-60
2022/04/21 02:35:34;;;;;;;19.02;12.18;;;;;;;8.97;100.00;100707.20;1644815;87;21061;-60
2022/04/21 02:38:02;;;;;;;19.60;12.70;;;;;;;9.06;100.00;100695.76;1644643;87;21530;-60
2022/04/21 02:40:31;;;;;;;19.23;13.65;;;;;;;8.98;100.00;100698.59;1644397;87;21089;-60
2022/04/21 02:42:59;;;;;;;24.55;14.58;;;;;;;9.07;100.00;100697.45;1644423;87;21133;-59
2022/04/21 02:45:28;;;;;;;25.02;14.18;;;;;;;8.99;100.00;100694.69;1644355;87;21599;-60
2022/04/21 02:47:56;;;;;;;23.27;14.68;;;;;;;8.94;100.00;100698.30;1644501;87;21081;-59
2022/04/21 02:50:25;;;;;;;26.45;14.25;;;;;;;8.99;100.00;100702.39;1644546;87;21070;-60
2022/04/21 02:52:52;;;;;;;19.48;13.68;;;;;;;8.85;100.00;100691.75;1644378;87;21129;-59
2022/04/21 02:58:05;;;;;;;20.52;14.00;;;;;;;9.05;100.00;100684.66;1644798;87;21526;-59
2022/04/21 03:00:32;;;;;;;21.70;15.15;;;;;;;9.08;100.00;100685.81;1644428;86;21561;-60
2022/04/21 03:03:00;;;;;;;23.12;14.83;;;;;;;9.04;100.00;100694.52;1644722;87;21120;-60
2022/04/21 03:05:27;;;;;;;21.60;14.20;;;;;;;9.16;100.00;100694.09;1644651;87;21246;-60
2022/04/21 03:07:56;;;;;;;25.00;14.98;;;;;;;9.00;100.00;100707.07;1644424;87;21057;-60
2022/04/21 03:10:25;;;;;;;25.35;15.70;;;;;;;9.25;100.00;100704.96;1644607;87;21557;-60
2022/04/21 03:12:53;;;;;;;20.62;14.20;;;;;;;9.29;100.00;100709.09;1644403;87;21133;-59
2022/04/21 03:15:20;;;;;;;24.77;13.88;;;;;;;9.18;100.00;100709.00;1644402;87;21053;-60
2022/04/21 03:17:49;;;;;;;21.85;13.78;;;;;;;9.22;100.00;100703.31;1644447;87;21582;-60
2022/04/21 03:25:50;;;;;;;23.12;15.00;;;;;;;9.12;100.00;100700.23;1644768;87;21510;-59
2022/04/21 03:28:17;;;;;;;22.25;14.03;;;;;;;8.78;100.00;100705.25;1644834;87;21503;-59
2022/04/21 03:30:44;;;;;;;21.73;13.85;;;;;;;9.12;100.00;100701.97;1644371;87;21062;-60
2022/04/21 03:33:11;;;;;;;22.27;14.38;;;;;;;9.14;100.00;100703.58;1644622;87;21790;-60
2022/04/21 03:35:38;;;;;;;21.55;13.70;;;;;;;8.92;100.00;100702.64;1644604;87;21046;-60
2022/04/21 03:38:06;;;;;;;22.50;14.58;;;;;;;9.03;100.00;100700.11;1644483;87;21102;-61
2022/04/21 03:40:34;;;;;;;23.27;14.30;;;;;;;9.15;100.00;100700.59;1644751;87;21060;-59
2022/04/21 03:43:01;;;;;;;22.70;14.33;;;;;;;9.16;100.00;100706.09;1644498;87;21042;-60
2022/04/21 03:45:29;;;;;;;22.87;13.78;;;;;;;9.30;100.00;100707.73;1644423;87;21573;-60
2022/04/21 03:47:58;;;;;;;21.12;12.33;;;;;;;9.37;100.00;100711.78;1644582;87;21101;-60
2022/04/21 03:50:26;;;;;;;22.27;13.20;;;;;;;9.44;100.00;100712.38;1644326;87;21578;-60
2022/04/21 03:52:53;;;;;;;21.73;12.70;;;;;;;9.46;100.00;100709.77;1644441;87;21096;-60
2022/04/21 03:55:22;;;;;;;15.78;11.20;;;;;;;9.57;100.00;100716.62;1644303;87;21097;-60
2022/04/21 03:57:50;;;;;;;18.20;11.88;;;;;;;9.59;100.00;100710.98;1644299;87;21082;-60
2022/04/21 04:00:19;;;;;;;16.73;11.88;;;;;;;9.70;100.00;100710.15;1644603;87;21537;-60
2022/04/21 04:02:47;;;;;;;18.40;12.10;;;;;;;9.69;100.00;100705.92;1644388;86;21121;-60
2022/04/21 04:05:14;;;;;;;18.35;11.33;;;;;;;9.79;100.00;100709.82;1644457;87;21129;-60
2022/04/21 04:13:24;;;;;;;20.82;11.75;;;;;;;9.69;100.00;100720.48;1644278;87;21030;-60
2022/04/21 04:15:54;;;;;;;19.87;11.90;;;;;;;9.91;100.00;100716.20;1650697;87;21072;-60
2022/04/21 04:18:22;;;;;;;17.57;11.43;;;;;;;9.89;100.00;100711.57;1650501;87;21061;-60
2022/04/21 04:20:50;;;;;;;15.53;10.80;;;;;;;10.07;100.00;100700.20;1650870;87;21093;-60
2022/04/21 04:23:21;;;;;;;16.40;11.22;;;;;;;10.33;100.00;100709.50;1629103;86;21056;-61
2022/04/21 04:25:49;;;;;;;16.30;10.50;;;;;;;10.39;100.00;100716.98;1658446;86;21010;-60
2022/04/21 04:28:16;;;;;;;17.00;10.93;;;;;;;10.25;100.00;100711.51;1649613;86;21035;-61
2022/04/21 04:30:44;;;;;;;15.95;10.70;;;;;;;10.39;100.00;100706.68;1650513;86;21036;-60
2022/04/21 04:33:11;;;;;;;14.63;10.40;;;;;;;10.32;100.00;100704.81;1642122;86;21101;-60
2022/04/21 04:35:39;;;;;;;17.90;10.45;;;;;;;10.04;100.00;100715.31;1643977;86;21070;-61
2022/04/21 04:38:06;;;;;;;13.88;9.68;;;;;;;10.21;100.00;100720.62;1649053;86;21023;-60
2022/04/21 04:40:34;;;;;;;12.85;9.65;;;;;;;10.28;100.00;100726.38;1625135;87;21036;-61
2022/04/21 04:43:03;;;;;;;17.20;10.10;;;;;;;10.34;100.00;100730.03;1630337;87;21038;-61
2022/04/21 04:48:17;;;;;;;12.73;8.88;;;;;;;10.71;100.00;100725.14;1621616;88;21020;-61
2022/04/21 04:50:46;;;;;;;9.25;7.95;;;;;;;10.95;100.00;100731.02;1618354;88;21032;-60
2022/04/21 04:53:15;;;;;;;12.88;8.00;;;;;;;11.14;100.00;100734.46;1620424;88;21504;-60
2022/04/21 04:55:42;;;;;;;11.68;8.05;;;;;;;11.17;100.00;100727.91;1652502;86;21089;-60
2022/04/21 04:58:11;;;;;;;12.30;7.87;;;;;;;11.43;100.00;100729.78;1639861;86;21553;-60
2022/04/21 05:00:39;;;;;;;14.20;8.63;;;;;;;11.53;100.00;100727.17;1648766;86;21403;-63
2022/04/21 05:03:07;;;;;;;11.68;8.18;;;;;;;11.63;100.00;100727.61;1643729;87;21020;-61
2022/04/21 05:05:34;;;;;;;12.58;8.03;;;;;;;11.70;100.00;100725.58;1645261;86;21497;-61
2022/04/21 05:08:05;;;;;;;14.78;8.75;;;;;;;11.79;100.00;100731.16;1647062;86;21070;-61
2022/04/21 05:10:32;;;;;;;14.60;8.95;;;;;;;11.73;100.00;100731.91;1641527;87;21060;-60
2022/04/21 05:13:01;;;;;;;13.68;8.40;;;;;;;12.14;100.00;100735.17;1645494;86;21226;-60
2022/04/21 05:15:30;;;;;;;10.98;8.53;;;;;;;12.07;100.00;100736.38;1659797;86;21052;-60
2022/04/21 05:17:58;;;;;;;9.45;8.40;;;;;;;12.12;100.00;100734.41;1617434;88;21051;-60
2022/04/21 05:20:27;;;;;;;12.18;8.45;;;;;;;12.04;100.00;100739.09;1615627;88;21041;-60
2022/04/21 05:23:00;;;;;;;13.83;8.65;;;;;;;11.96;100.00;100737.32;1615972;86;21063;-60
2022/04/21 05:25:31;;;;;;;13.50;9.50;;;;;;;11.80;100.00;100738.01;1617168;87;21019;-60
2022/04/21 05:28:00;;;;;;;10.85;8.70;;;;;;;11.74;100.00;100738.72;1617763;88;21015;-60
2022/04/21 05:33:20;;;;;;;13.00;10.08;;;;;;;12.16;100.00;100742.39;1618416;88;21039;-61
2022/04/21 05:35:50;;;;;;;15.83;10.40;;;;;;;12.29;100.00;100740.55;1656082;86;21044;-60
2022/04/21 05:38:20;;;;;;;13.48;9.83;;;;;;;12.55;100.00;100740.56;1659542;86;21043;-60
2022/04/21 05:40:47;;;;;;;14.53;10.63;;;;;;;12.83;100.00;100743.48;1657304;86;21149;-60
2022/04/21 05:43:18;;;;;;;13.22;10.78;;;;;;;13.01;100.00;100746.04;1656863;86;21027;-60
2022/04/21 05:45:48;;;;;;;13.00;11.05;;;;;;;13.33;100.00;100744.89;1660227;86;21046;-60
2022/04/21 05:48:18;;;;;;;16.00;11.20;;;;;;;13.65;100.00;100739.33;1619440;88;21506;-60
2022/04/21 05:50:49;;;;;;;14.35;10.40;;;;;;;13.31;100.00;100743.67;1625144;88;21076;-60
2022/04/21 05:53:22;;;;;;;13.68;10.80;;;;;;;13.24;100.00;100748.77;1625042;88;21076;-60
2022/04/21 05:55:53;;;;;;;13.75;10.85;;;;;;;13.29;100.00;100744.21;1623666;88;21066;-61
2022/04/21 05:58:22;;;;;;;14.15;10.70;;;;;;;13.38;100.00;100748.92;1626656;88;21579;-61
2022/04/21 06:00:51;;;;;;;14.28;11.68;;;;;;;13.16;100.00;100745.74;1625633;88;21651;-60
2022/04/21 06:03:19;;;;;;;15.93;11.88;;;;;;;12.91;100.00;100744.37;1659401;86;21026;-60
2022/04/21 06:05:46;;;;;;;15.35;12.85;;;;;;;12.98;100.00;100745.75;1624187;88;21095;-60
2022/04/21 06:08:13;;;;;;;16.15;12.75;;;;;;;12.97;100.00;100747.94;1629687;87;21059;-60
2022/04/21 06:10:43;;;;;;;13.22;11.75;;;;;;;13.38;100.00;100750.21;1621929;88;21052;-60
2022/04/21 06:13:15;;;;;;;14.68;11.33;;;;;;;13.25;100.00;100755.59;1626762;85;21037;-61
2022/04/21 06:15:43;;;;;;;14.87;12.07;;;;;;;13.48;100.00;100751.02;1673910;85;21040;-60
2022/04/21 06:18:10;;;;;;;13.22;11.03;;;;;;;13.71;100.00;100752.41;1673253;85;21100;-60
2022/04/21 06:20:40;;;;;;;15.70;12.00;;;;;;;13.77;100.00;100759.37;1676965;85;21532;-60
2022/04/21 06:23:08;;;;;;;13.90;11.10;;;;;;;14.06;100.00;100754.37;1676973;85;21023;-60
2022/04/21 06:25:38;;;;;;;12.03;10.30;;;;;;;14.16;100.00;100758.59;1676849;85;21139;-60
2022/04/21 06:28:05;;;;;;;17.30;12.40;;;;;;;13.94;100.00;100756.33;1677140;85;21024;-61
2022/04/21 06:30:34;;;;;;;21.35;14.80;;;;;;;13.75;100.00;100759.08;1676694;85;21548;-61
2022/04/21 06:33:02;;;;;;;20.60;13.85;;;;;;;13.59;100.00;100757.77;1676735;85;21083;-61
2022/04/21 06:35:30;;;;;;;19.52;13.18;;;;;;;13.39;100.00;100758.80;1677293;85;21013;-61
2022/04/21 06:37:57;;;;;;;20.72;14.43;;;;;;;13.68;100.00;100754.67;1675945;85;21115;-60
2022/04/21 06:40:25;;;;;;;20.08;13.85;;;;;;;13.77;100.00;100761.12;1676069;85;21117;-61
2022/04/21 06:42:53;;;;;;;23.07;13.48;;;;;;;13.88;100.00;100751.02;1676052;85;21071;-60
2022/04/21 06:48:09;;;;;;;16.37;12.18;;;;;;;13.23;100.00;100750.95;1676107;85;21060;-60
2022/04/21 06:50:39;;;;;;;17.40;11.70;;;;;;;13.43;100.00;100759.84;1676072;85;21075;-61
2022/04/21 06:53:09;;;;;;;17.10;12.07;;;;;;;13.37;100.00;100761.45;1676253;85;21063;-60
2022/04/21 06:55:38;;;;;;;15.65;12.43;;;;;;;13.25;100.00;100764.64;1668040;85;21044;-60
2022/04/21 06:58:06;;;;;;;24.02;12.55;;;;;;;13.08;100.00;100760.34;1670793;85;21529;-60
2022/04/21 07:00:34;;;;;;;16.77;11.20;;;;;;;13.13;100.00;100763.51;1668149;85;21044;-60
2022/04/21 07:03:02;;;;;;;15.53;11.25;;;;;;;12.95;100.00;100767.02;1668748;85;21079;-61
2022/04/21 07:05:30;;;;;;;13.53;10.88;;;;;;;13.21;100.00;100767.83;1659628;86;21086;-61
2022/04/21 07:07:59;;;;;;;13.83;10.28;;;;;;;13.30;100.00;100772.19;1654178;86;21039;-60
2022/04/21 07:10:28;;;;;;;15.50;9.83;;;;;;;13.44;100.00;100765.84;1658849;86;21050;-61
2022/04/21 07:12:57;;;;;;;13.98;9.55;;;;;;;13.41;99.91;100763.44;1642201;86;21240;-61
2022/04/21 07:15:25;;;;;;;14.20;9.40;;;;;;;13.12;100.00;100767.45;1657036;86;21014;-61
2022/04/21 07:17:53;;;;;;;12.88;9.70;;;;;;;13.05;100.00;100757.06;1676024;85;21499;-61
2022/04/21 07:20:23;;;;;;;12.23;9.33;;;;;;;13.18;100.00;100764.59;1671694;85;21024;-61
2022/04/21 07:22:50;;;;;;;12.45;8.98;;;;;;;13.43;100.00;100763.72;1668777;85;21211;-61
2022/04/21 07:25:19;;;;;;;12.07;9.10;;;;;;;13.58;100.00;100761.25;1666501;85;21036;-61
2022/04/21 07:27:48;;;;;;;12.35;8.80;;;;;;;13.86;98.40;100754.16;1657240;86;21140;-60
2022/04/21 07:30:17;;;;;;;11.57;8.93;;;;;;;13.91;96.72;100756.05;1665112;85;21012;-61
2022/04/21 07:32:44;;;;;;;12.15;9.18;;;;;;;14.07;95.43;100752.17;1671447;85;21389;-61
2022/04/21 07:35:13;;;;;;;10.95;9.80;;;;;;;14.11;95.95;100744.61;1669412;84;21173;-62
2022/04/21 07:37:42;;;;;;;12.68;9.60;;;;;;;14.36;96.09;100749.72;1672351;85;21164;-61
2022/04/21 07:40:11;;;;;;;10.63;8.50;;;;;;;14.53;93.20;100750.88;1669105;85;21068;-61
2022/04/21 07:42:38;;;;;;;13.45;9.20;;;;;;;14.29;92.93;100743.20;1669253;85;21118;-61
2022/04/21 07:45:07;;;;;;;10.55;8.78;;;;;;;14.47;91.56;100741.33;1654072;85;21026;-62
2022/04/21 07:47:34;;;;;;;11.08;8.55;;;;;;;14.45;92.54;100750.95;1669761;84;21013;-62
2022/04/21 07:50:01;;;;;;;11.73;8.40;;;;;;;14.91;89.13;100754.36;1669892;85;21509;-62
2022/04/21 07:55:20;;;;;;;11.45;8.05;;;;;;;15.48;82.62;100750.16;1669341;85;21081;-61
2022/04/21 07:57:52;;;;;;;8.17;7.37;;;;;;;15.28;81.67;100747.46;1669735;85;21084;-61
2022/04/21 08:00:20;;;;;;;8.73;7.40;;;;;;;15.19;81.53;100747.55;1671597;85;21508;-60
2022/04/21 08:02:49;;;;;;;7.55;6.75;;;;;;;15.07;80.30;100746.52;1686084;85;21115;-60
2022/04/21 08:05:22;;;;;;;8.43;6.00;;;;;;;15.14;80.76;100748.28;1686364;85;21078;-60
2022/04/21 08:07:52;;;;;;;7.60;6.80;;;;;;;14.97;80.87;100747.52;1665003;85;21139;-61
2022/04/21 08:10:20;;;;;;;10.53;6.65;;;;;;;15.32;80.36;100748.94;1655007;87;21063;-61
2022/04/21 08:12:52;;;;;;;7.53;6.10;;;;;;;15.73;77.99;100746.44;1655113;86;21603;-60
2022/04/21 08:15:26;;;;;;;10.18;6.70;;;;;;;15.71;76.78;100743.07;1651118;86;21338;-61
2022/04/21 08:18:04;;;;;;;7.70;6.97;;;;;;;15.70;74.88;100747.91;1649954;87;21068;-61
2022/04/21 08:20:38;;;;;;;11.03;6.85;;;;;;;15.68;77.26;100750.23;1649650;86;21087;-61
2022/04/21 08:23:04;;;;;;;7.33;5.60;;;;;;;15.46;75.04;100749.41;1649084;86;21024;-61
2022/04/21 08:33:52;;;;;;;6.10;5.28;;;;;;;15.21;74.00;100745.23;1650028;87;21051;-60
2022/04/21 08:36:19;;;;;;;6.28;5.60;;;;;;;14.80;75.89;100745.06;1649897;86;21048;-61
2022/04/21 08:38:48;;;;;;;5.92;4.95;;;;;;;14.70;77.74;100748.67;1649961;87;21576;-60
2022/04/21 08:41:18;;;;;;;5.15;4.65;;;;;;;15.03;78.08;100743.27;1649669;87;21083;-61
2022/04/21 08:43:47;;;;;;;5.85;4.90;;;;;;;15.15;76.32;100753.85;1649939;87;21064;-60
2022/04/21 08:46:20;;;;;;;8.68;4.85;;;;;;;15.68;76.68;100741.98;1649963;87;21053;-61
2022/04/21 08:48:51;;;;;;;8.05;4.45;;;;;;;16.11;75.93;100748.87;1650025;87;21071;-62
2022/04/21 08:51:20;;;;;;;6.20;4.53;;;;;;;16.25;71.08;100739.73;1650377;86;21111;-60
2022/04/21 08:53:49;;;;;;;4.78;4.28;;;;;;;16.26;72.75;100744.45;1649795;87;21079;-60
2022/04/21 08:56:20;;;;;;;8.45;4.65;;;;;;;16.17;71.14;100745.89;1649846;86;21135;-60
2022/04/21 08:58:48;;;;;;;6.37;4.42;;;;;;;16.27;72.08;100740.95;1650139;87;21056;-60
2022/04/21 09:01:18;;;;;;;6.22;4.70;;;;;;;16.70;71.45;100735.06;1650005;87;21116;-61
2022/04/21 09:03:48;;;;;;;5.87;4.83;;;;;;;16.78;68.49;100729.36;1649968;87;21044;-60
2022/04/21 09:06:17;;;;;;;5.67;5.08;;;;;;;16.85;69.34;100728.52;1649687;87;21119;-62
2022/04/21 09:08:44;;;;;;;5.20;4.62;;;;;;;17.19;67.99;100732.27;1649996;87;21052;-62
2022/04/21 09:11:17;;;;;;;6.33;4.97;;;;;;;17.12;69.44;100727.14;1649938;87;21029;-61
2022/04/21 09:13:46;;;;;;;5.40;4.90;;;;;;;17.33;69.80;100732.16;1650205;87;21053;-61
2022/04/21 09:16:20;;;;;;;7.55;5.05;;;;;;;17.22;67.56;100731.59;1649803;86;21099;-62
2022/04/21 09:18:49;;;;;;;5.78;4.70;;;;;;;17.26;65.88;100728.80;1642065;87;21071;-61
2022/04/21 09:21:17;;;;;;;5.62;5.12;;;;;;;16.99;66.19;100729.27;1632150;88;21035;-61
2022/04/21 09:23:48;;;;;;;5.65;4.65;;;;;;;16.89;67.86;100723.02;1631939;88;21126;-61
2022/04/21 09:26:20;;;;;;;7.50;5.10;;;;;;;16.91;69.38;100726.36;1631945;88;21086;-61
2022/04/21 09:28:56;;;;;;;7.00;5.40;;;;;;;17.37;66.95;100735.37;1632200;88;21091;-61
2022/04/21 09:31:27;;;;;;;7.80;4.97;;;;;;;17.15;66.87;100732.97;1631914;88;21581;-61
2022/04/21 09:33:56;;;;;;;6.40;5.03;;;;;;;17.21;67.65;100732.99;1631958;88;21032;-61
2022/04/21 09:36:27;;;;;;;6.70;4.67;;;;;;;17.23;66.45;100729.81;1631702;88;21114;-61
2022/04/21 09:39:05;;;;;;;7.12;4.80;;;;;;;17.17;66.47;100728.94;1609735;88;21084;-61
2022/04/21 09:41:32;;;;;;;5.17;4.67;;;;;;;17.17;67.34;100724.59;1631936;88;21584;-61
2022/04/21 09:46:56;;;;;;;;;;;;;;;17.27;64.87;100730.45;1634559;88;21031;-61
2022/04/21 09:49:46;;;;;;;6.15;4.80;;;;;;;17.29;64.33;100733.30;1610192;88;20424;-60
2022/04/21 09:52:11;;;;;;;6.92;5.10;;;;;;;17.26;64.18;100736.61;1631076;88;21130;-61
2022/04/21 09:54:45;;;;;;;5.47;4.55;;;;;;;17.28;65.92;100732.95;1632024;88;21106;-61
2022/04/21 09:57:10;;;;;;;7.15;4.40;;;;;;;17.19;65.05;100731.82;1631806;88;21061;-61
2022/04/21 09:59:40;;;;;;;5.83;4.70;;;;;;;17.39;63.92;100732.20;1631730;88;21095;-62
2022/04/21 10:02:08;;;;;;;5.80;4.70;;;;;;;17.52;63.64;100737.41;1631812;88;21067;-61
2022/04/21 10:04:36;;;;;;;5.85;4.33;;;;;;;17.88;63.00;100734.47;1631926;88;21572;-61
2022/04/21 10:07:04;;;;;;;7.10;4.72;;;;;;;17.70;63.97;100732.22;1638176;87;21389;-61
2022/04/21 10:09:32;;;;;;;5.00;4.50;;;;;;;17.97;62.02;100735.13;1650145;87;21131;-62
2022/04/21 10:12:05;;;;;;;5.58;4.47;;;;;;;18.01;62.45;100732.19;1649731;87;21024;-62
2022/04/21 10:14:34;;;;;;;5.45;4.47;;;;;;;18.29;61.86;100736.72;1649999;86;21087;-62
2022/04/21 10:17:07;;;;;;;5.08;4.58;;;;;;;17.95;61.89;100740.92;1649880;86;21111;-61
2022/04/21 10:19:35;;;;;;;6.20;4.55;;;;;;;17.85;61.59;100735.53;1650298;87;21513;-62
2022/04/21 10:22:06;;;;;;;5.45;4.50;;;;;;;17.92;61.75;100745.03;1650138;87;21643;-61
2022/04/21 10:24:37;;;;;;;4.90;4.40;;;;;;;17.71;62.45;100742.15;1649928;87;21048;-61
2022/04/21 10:27:05;;;;;;;5.17;4.67;;;;;;;17.80;61.23;100745.39;1650029;86;21099;-62
2022/04/21 10:29:39;;;;;;;4.62;4.22;;;;;;;17.62;61.33;100750.14;1650091;86;21115;-61
2022/04/21 10:32:07;;;;;;;5.62;4.78;;;;;;;17.59;60.87;100742.53;1646545;87;21116;-62
2022/04/21 10:34:48;;;;;;;5.60;4.80;;;;;;;17.73;59.88;100747.61;1649891;87;21052;-61
2022/04/21 10:37:20;;;;;;;5.47;4.08;;;;;;;17.80;62.37;100750.16;1649794;86;21170;-61
2022/04/21 10:40:09;;;;;;;6.17;4.72;;;;;;;17.86;58.91;100748.89;1650036;86;21055;-61
2022/04/21 10:43:03;;;;;;;6.08;4.92;;;;;;;17.77;60.70;100749.05;1629933;87;21064;-61
2022/04/21 10:45:37;;;;;;;5.12;4.30;;;;;;;17.94;59.81;100750.95;1649236;87;21138;-61
2022/04/21 10:48:12;;;;;;;6.72;4.20;;;;;;;18.14;56.35;100749.06;1648350;87;21071;-62
2022/04/21 10:50:44;;;;;;;7.83;4.60;;;;;;;18.21;54.32;100754.68;1649908;87;21100;-62
2022/04/21 10:59:08;;;;;;;6.87;4.00;;;;;;;18.75;57.27;100758.06;1649890;87;21103;-62
2022/04/21 11:01:35;;;;;;;3.40;3.08;;;;;;;18.75;55.03;100759.37;1650170;87;21166;-61
2022/04/21 11:04:14;;;;;;;3.37;2.98;;;;;;;18.74;50.54;100760.33;1649903;86;21099;-61
2022/04/21 11:06:56;;;;;;;3.95;3.02;;;;;;;18.36;50.28;100765.76;1651530;86;21563;-62
2022/04/21 11:09:39;;;;;;;6.17;4.05;;;;;;;18.33;50.15;100758.14;1650312;86;21063;-62
2022/04/21 11:12:12;;;;;;;4.87;4.00;;;;;;;18.19;53.20;100758.69;1657575;86;21065;-62
2022/04/21 11:14:40;;;;;;;5.67;4.15;;;;;;;18.08;53.01;100761.22;1639046;86;21059;-61
2022/04/21 11:17:09;;;;;;;4.20;3.45;;;;;;;18.35;52.82;100771.45;1664925;86;21094;-62
2022/04/21 11:19:53;;;;;;;5.78;3.20;;;;;;;18.65;52.26;100766.70;1664957;86;21078;-62
2022/04/21 11:22:42;;;;;;;3.22;2.47;;;;;;;18.32;52.61;100767.75;1664952;86;21133;-61
2022/04/21 11:25:12;;;;;;;2.37;2.17;;;;;;;17.88;51.58;100765.72;1665008;86;21075;-62
2022/04/21 11:27:45;;;;;;;3.15;2.60;;;;;;;17.26;54.39;100770.42;1665213;86;21078;-62
2022/04/21 11:30:14;;;;;;;3.17;2.52;;;;;;;17.46;55.83;100771.19;1665172;86;21093;-61
2022/04/21 11:32:53;;;;;;;3.95;2.92;;;;;;;17.81;53.33;100757.48;1665876;86;21043;-61
2022/04/21 11:35:22;;;;;;;4.78;3.10;;;;;;;17.83;52.93;100755.64;1666062;86;21074;-62
2022/04/21 11:38:00;;;;;;;3.60;2.42;;;;;;;17.86;52.78;100758.48;1665941;86;21153;-62
2022/04/21 11:40:37;;;;;;;3.12;2.52;;;;;;;17.70;51.65;100767.36;1665891;86;21146;-62
2022/04/21 11:43:17;;;;;;;4.85;2.60;;;;;;;17.90;50.52;100767.27;1665777;86;21579;-62
2022/04/21 11:45:59;;;;;;;3.72;2.20;;;;;;;17.66;50.56;100764.61;1665911;86;21063;-62
2022/04/21 11:48:40;;;;;;;4.42;2.70;;;;;;;17.96;52.18;100762.10;1665799;86;21106;-61
2022/04/21 11:51:05;;;;;;;3.83;2.47;;;;;;;18.11;50.76;100763.63;1665242;86;21003;-61
2022/04/21 11:53:40;;;;;;;4.62;2.70;;;;;;;18.38;51.32;100766.00;1665973;86;21075;-63
2022/04/21 11:56:10;;;;;;;3.75;2.47;;;;;;;18.19;50.65;100767.81;1666168;86;21027;-62
2022/04/21 11:58:43;;;;;;;3.15;2.37;;;;;;;18.11;49.36;100762.32;1665683;86;21580;-62
2022/04/21 12:06:48;;;;;;;5.53;3.10;;;;;;;18.00;49.89;100761.80;1661508;86;21068;-61
2022/04/21 12:09:19;;;;;;;4.00;3.25;;;;;;;18.56;50.79;100761.70;1644479;87;21566;-62
2022/04/21 12:11:56;;;;;;;5.40;3.50;;;;;;;18.85;49.18;100763.95;1644339;86;21068;-61
2022/04/21 12:14:24;;;;;;;4.15;3.33;;;;;;;19.23;50.95;100762.34;1644496;87;21092;-62
2022/04/21 12:17:00;;;;;;;6.58;3.50;;;;;;;19.52;50.33;100764.00;1644297;87;21072;-62